LFPM 162200Z AUTO 12004KT 9999 FEW023 SCT029 OVC035 05/04 Q1010

Les avions qui composent notre flotte

Avion Robin DR400-120

Avion école

F-BVMQ
   * tarif promotionnel appliqué pendant la formation des élèves non brevetés


F-BVMQ Planche